Terminal Aerodrome Forecast
Issued by NWS Tampa Bay Area, FL

Home | Current Version | Previous Version | Text Only | Print | Product List | Glossary On
Versions: 1 2 3 4 5 6 7 8 9 10 11 12 13 14 15 16 17 18 19 20 21 22 23 24 25 26 27 28 29 30 31 32 33 34
000
FTUS42 KTBW 280058 AAA
TAFTPA
TAF AMD
KTPA 280058Z 2801/2824 20011KT P6SM SHRA FEW025 BKN150
      TEMPO 2801/2803 VRB12G20KT 3SM SHRA BKN025
     FM280300 20005KT P6SM VCSH SCT025 BKN150
     FM281200 22008KT 6SM SHRA SCT025 BKN035 BKN150
     FM281600 25007KT 6SM SHRA VCTS SCT035CB BKN090=

USA.gov is the U.S. government's official web portal to all federal, state and local government web resources and services.